Augusta, Michigan
Current Conditions -  °F | °C
As of 5:53 PM on Wednesday 17 Dec 2014 (Local Time) from KBTL Reporting Station
Overcast Overcast  
Wind Chill: -8°   Ceiling: 2900
Heat Index: -2°   Visibility: 10mi
Dew Point: -8°   Wind: 14mph
Humidity: 64%   Direction: 300°WNW
Pressure: 30.15"   Gusts: NA
Location:  42.34°N, 85.35°W
Report Text: KBTL 172253Z 30012KT 10SM OVC029 M02/M08 A3015 RMK AO2 PK WND 28027/2204 SLP220 T10171078
Loading
Personal Weather Stations






























Interactive Weather Map New forecast layout! Learn more

10-Day Weather Forecast

Advertisements
Track Severe Weather on mobile